sensor_id;sensor_type;location;lat;lon;timestamp;pressure;altitude;pressure_sealevel;temperature;humidity
30949;BME280;17637;51.984;21.208;2023-01-26T00:01:10;101180.63;;;0.31;73.02
30949;BME280;17637;51.984;21.208;2023-01-26T00:03:43;101177.97;;;0.36;72.82
30949;BME280;17637;51.984;21.208;2023-01-26T00:06:17;101168.72;;;0.27;72.57
30949;BME280;17637;51.984;21.208;2023-01-26T00:08:51;101172.03;;;0.35;72.48
30949;BME280;17637;51.984;21.208;2023-01-26T00:11:25;101173.72;;;0.36;72.62
30949;BME280;17637;51.984;21.208;2023-01-26T00:13:59;101154.16;;;0.32;72.54
30949;BME280;17637;51.984;21.208;2023-01-26T00:16:31;101162.59;;;0.37;72.63
30949;BME280;17637;51.984;21.208;2023-01-26T00:19:03;101165.16;;;0.39;72.88
30949;BME280;17637;51.984;21.208;2023-01-26T00:21:36;101150.81;;;0.30;72.39
30949;BME280;17637;51.984;21.208;2023-01-26T00:24:08;101169.41;;;0.38;72.07
30949;BME280;17637;51.984;21.208;2023-01-26T00:26:40;101157.53;;;0.36;72.02
30949;BME280;17637;51.984;21.208;2023-01-26T00:29:12;101168.53;;;0.39;72.68
30949;BME280;17637;51.984;21.208;2023-01-26T00:31:44;101138.06;;;0.28;72.37
30949;BME280;17637;51.984;21.208;2023-01-26T00:34:16;101160.06;;;0.36;72.97
30949;BME280;17637;51.984;21.208;2023-01-26T00:36:48;101144.19;;;0.16;72.14
30949;BME280;17637;51.984;21.208;2023-01-26T00:39:20;101138.09;;;0.25;72.25
30949;BME280;17637;51.984;21.208;2023-01-26T00:41:52;101154.03;;;0.40;72.39
30949;BME280;17637;51.984;21.208;2023-01-26T00:44:42;101174.50;;;0.40;72.81
30949;BME280;17637;51.984;21.208;2023-01-26T00:47:14;101138.97;;;0.23;72.94
30949;BME280;17637;51.984;21.208;2023-01-26T00:49:47;101149.91;;;0.32;72.67
30949;BME280;17637;51.984;21.208;2023-01-26T00:52:19;101146.41;;;0.38;73.09
30949;BME280;17637;51.984;21.208;2023-01-26T00:54:51;101148.28;;;0.28;73.30
30949;BME280;17637;51.984;21.208;2023-01-26T00:57:23;101141.34;;;0.35;73.28
30949;BME280;17637;51.984;21.208;2023-01-26T00:59:55;101140.53;;;0.31;73.22
30949;BME280;17637;51.984;21.208;2023-01-26T01:02:27;101146.44;;;0.37;73.09
30949;BME280;17637;51.984;21.208;2023-01-26T01:04:59;101129.50;;;0.31;73.09
30949;BME280;17637;51.984;21.208;2023-01-26T01:07:31;101116.84;;;0.22;73.20
30949;BME280;17637;51.984;21.208;2023-01-26T01:10:03;101129.56;;;0.26;73.89
30949;BME280;17637;51.984;21.208;2023-01-26T01:12:35;101116.94;;;0.17;73.72
30949;BME280;17637;51.984;21.208;2023-01-26T01:15:07;101121.94;;;0.22;73.67
30949;BME280;17637;51.984;21.208;2023-01-26T01:17:40;101123.59;;;0.24;73.77
30949;BME280;17637;51.984;21.208;2023-01-26T01:20:12;101126.88;;;0.34;73.50
30949;BME280;17637;51.984;21.208;2023-01-26T01:22:44;101073.66;;;0.05;73.68
30949;BME280;17637;51.984;21.208;2023-01-26T01:25:16;101111.72;;;0.23;74.01
30949;BME280;17637;51.984;21.208;2023-01-26T01:27:48;101066.91;;;0.01;73.81
30949;BME280;17637;51.984;21.208;2023-01-26T01:30:20;101086.38;;;0.09;73.79
30949;BME280;17637;51.984;21.208;2023-01-26T01:32:52;101115.84;;;0.30;74.34
30949;BME280;17637;51.984;21.208;2023-01-26T01:35:24;101103.97;;;0.26;74.35
30949;BME280;17637;51.984;21.208;2023-01-26T01:37:56;101105.78;;;0.21;74.18
30949;BME280;17637;51.984;21.208;2023-01-26T01:40:28;101110.69;;;0.34;74.22
30949;BME280;17637;51.984;21.208;2023-01-26T01:43:00;101088.66;;;0.26;74.15
30949;BME280;17637;51.984;21.208;2023-01-26T01:45:41;101098.78;;;0.32;73.96
30949;BME280;17637;51.984;21.208;2023-01-26T01:48:37;101105.50;;;0.37;74.11
30949;BME280;17637;51.984;21.208;2023-01-26T01:51:17;101033.84;;;-0.07;74.29
30949;BME280;17637;51.984;21.208;2023-01-26T01:53:51;101102.13;;;0.35;74.13
30949;BME280;17637;51.984;21.208;2023-01-26T01:56:27;101097.00;;;0.35;74.40
30949;BME280;17637;51.984;21.208;2023-01-26T01:59:02;101093.69;;;0.31;74.37
30949;BME280;17637;51.984;21.208;2023-01-26T02:01:35;101029.56;;;-0.07;74.19
30949;BME280;17637;51.984;21.208;2023-01-26T02:04:08;101080.91;;;0.31;74.27
30949;BME280;17637;51.984;21.208;2023-01-26T02:06:49;101090.09;;;0.41;74.24
30949;BME280;17637;51.984;21.208;2023-01-26T02:09:29;101075.84;;;0.26;74.42
30949;BME280;17637;51.984;21.208;2023-01-26T02:12:25;101086.78;;;0.36;74.75
30949;BME280;17637;51.984;21.208;2023-01-26T02:14:59;101068.22;;;0.25;74.59
30949;BME280;17637;51.984;21.208;2023-01-26T02:17:32;101081.66;;;0.35;74.39
30949;BME280;17637;51.984;21.208;2023-01-26T02:22:44;101060.38;;;0.34;74.61
30949;BME280;17637;51.984;21.208;2023-01-26T02:25:32;101033.44;;;0.16;74.63
30949;BME280;17637;51.984;21.208;2023-01-26T02:28:07;101052.81;;;0.28;74.69
30949;BME280;17637;51.984;21.208;2023-01-26T02:30:39;101037.50;;;0.26;74.72
30949;BME280;17637;51.984;21.208;2023-01-26T02:33:19;101053.56;;;0.33;74.60
30949;BME280;17637;51.984;21.208;2023-01-26T02:35:52;101043.38;;;0.31;74.68
30949;BME280;17637;51.984;21.208;2023-01-26T02:38:29;101052.63;;;0.39;74.70
30949;BME280;17637;51.984;21.208;2023-01-26T02:41:05;101043.31;;;0.36;74.70
30949;BME280;17637;51.984;21.208;2023-01-26T02:43:38;101001.19;;;0.07;74.68
30949;BME280;17637;51.984;21.208;2023-01-26T02:46:10;101030.66;;;0.27;74.89
30949;BME280;17637;51.984;21.208;2023-01-26T02:48:42;101027.34;;;0.22;75.14
30949;BME280;17637;51.984;21.208;2023-01-26T02:51:33;101039.97;;;0.32;75.17
30949;BME280;17637;51.984;21.208;2023-01-26T02:54:05;101007.03;;;0.14;75.01
30949;BME280;17637;51.984;21.208;2023-01-26T02:56:37;100979.09;;;0.05;75.08
30949;BME280;17637;51.984;21.208;2023-01-26T02:59:12;101007.75;;;0.22;75.24
30949;BME280;17637;51.984;21.208;2023-01-26T03:01:47;101029.75;;;0.31;75.41
30949;BME280;17637;51.984;21.208;2023-01-26T03:04:20;100981.63;;;0.08;75.33
30949;BME280;17637;51.984;21.208;2023-01-26T03:06:52;101005.84;;;0.34;75.06
30949;BME280;17637;51.984;21.208;2023-01-26T03:09:24;100990.72;;;0.21;75.24
30949;BME280;17637;51.984;21.208;2023-01-26T03:11:56;101008.41;;;0.34;74.98
30949;BME280;17637;51.984;21.208;2023-01-26T03:14:28;100996.41;;;0.36;74.85
30949;BME280;17637;51.984;21.208;2023-01-26T03:17:00;100972.00;;;0.19;75.05
30949;BME280;17637;51.984;21.208;2023-01-26T03:19:32;100952.75;;;0.01;75.02
30949;BME280;17637;51.984;21.208;2023-01-26T03:22:23;100976.22;;;0.22;75.19
30949;BME280;17637;51.984;21.208;2023-01-26T03:25:14;100981.25;;;0.26;75.02
30949;BME280;17637;51.984;21.208;2023-01-26T03:28:04;100998.13;;;0.37;75.06
30949;BME280;17637;51.984;21.208;2023-01-26T03:30:36;100977.81;;;0.29;74.68
30949;BME280;17637;51.984;21.208;2023-01-26T03:33:08;100988.63;;;0.42;74.41
30949;BME280;17637;51.984;21.208;2023-01-26T03:35:40;100964.16;;;0.30;74.51
30949;BME280;17637;51.984;21.208;2023-01-26T03:38:12;100972.75;;;0.24;74.47
30949;BME280;17637;51.984;21.208;2023-01-26T03:40:44;100971.94;;;0.24;74.71
30949;BME280;17637;51.984;21.208;2023-01-26T03:43:35;100981.16;;;0.32;74.72
30949;BME280;17637;51.984;21.208;2023-01-26T03:46:25;100981.06;;;0.36;74.84
30949;BME280;17637;51.984;21.208;2023-01-26T03:49:16;100981.06;;;0.36;74.92
30949;BME280;17637;51.984;21.208;2023-01-26T03:52:06;100976.06;;;0.29;74.92
30949;BME280;17637;51.984;21.208;2023-01-26T03:54:57;100977.72;;;0.34;74.57
30949;BME280;17637;51.984;21.208;2023-01-26T03:57:48;100977.59;;;0.40;74.41
30949;BME280;17637;51.984;21.208;2023-01-26T04:00:20;100981.06;;;0.36;74.37
30949;BME280;17637;51.984;21.208;2023-01-26T04:02:52;100952.47;;;0.18;74.83
30949;BME280;17637;51.984;21.208;2023-01-26T04:05:43;100985.25;;;0.40;74.38
30949;BME280;17637;51.984;21.208;2023-01-26T04:08:47;100969.31;;;0.27;74.78
30949;BME280;17637;51.984;21.208;2023-01-26T04:11:19;100964.13;;;0.31;74.77
30949;BME280;17637;51.984;21.208;2023-01-26T04:13:51;100952.31;;;0.24;74.63
30949;BME280;17637;51.984;21.208;2023-01-26T04:16:41;100957.31;;;0.30;74.65
30949;BME280;17637;51.984;21.208;2023-01-26T04:19:32;100940.34;;;0.26;74.71
30949;BME280;17637;51.984;21.208;2023-01-26T04:22:22;100960.63;;;0.36;74.68
30949;BME280;17637;51.984;21.208;2023-01-26T04:24:54;100952.19;;;0.30;74.49
30949;BME280;17637;51.984;21.208;2023-01-26T04:27:27;100951.34;;;0.31;74.48
30949;BME280;17637;51.984;21.208;2023-01-26T04:30:03;100955.50;;;0.36;74.39
30949;BME280;17637;51.984;21.208;2023-01-26T04:32:35;100951.25;;;0.35;74.31
30949;BME280;17637;51.984;21.208;2023-01-26T04:35:08;100951.25;;;0.35;74.36
30949;BME280;17637;51.984;21.208;2023-01-26T04:37:41;100957.19;;;0.37;74.27
30949;BME280;17637;51.984;21.208;2023-01-26T04:40:13;100953.84;;;0.33;74.12
30949;BME280;17637;51.984;21.208;2023-01-26T04:42:45;100958.03;;;0.39;74.04
30949;BME280;17637;51.984;21.208;2023-01-26T04:45:17;100947.00;;;0.35;74.27
30949;BME280;17637;51.984;21.208;2023-01-26T04:47:49;100951.38;;;0.30;74.25
30949;BME280;17637;51.984;21.208;2023-01-26T04:50:21;100945.47;;;0.26;74.05
30949;BME280;17637;51.984;21.208;2023-01-26T04:52:53;100942.84;;;0.31;74.22
30949;BME280;17637;51.984;21.208;2023-01-26T04:55:25;100940.28;;;0.29;74.03
30949;BME280;17637;51.984;21.208;2023-01-26T04:57:57;100932.75;;;0.23;73.84
30949;BME280;17637;51.984;21.208;2023-01-26T05:00:29;100923.50;;;0.16;73.98
30949;BME280;17637;51.984;21.208;2023-01-26T05:03:01;100936.09;;;0.25;73.87
30949;BME280;17637;51.984;21.208;2023-01-26T05:05:37;100959.75;;;0.37;73.76
30949;BME280;17637;51.984;21.208;2023-01-26T05:08:09;100933.56;;;0.25;73.59
30949;BME280;17637;51.984;21.208;2023-01-26T05:10:41;100953.81;;;0.35;73.81
30949;BME280;17637;51.984;21.208;2023-01-26T05:13:14;100918.44;;;0.14;73.71
30949;BME280;17637;51.984;21.208;2023-01-26T05:15:46;100939.69;;;0.18;74.04
30949;BME280;17637;51.984;21.208;2023-01-26T05:18:18;100926.94;;;0.15;74.02
30949;BME280;17637;51.984;21.208;2023-01-26T05:20:50;100941.25;;;0.24;73.89
30949;BME280;17637;51.984;21.208;2023-01-26T05:23:22;100946.19;;;0.33;73.56
30949;BME280;17637;51.984;21.208;2023-01-26T05:25:54;100947.91;;;0.32;73.60
30949;BME280;17637;51.984;21.208;2023-01-26T05:28:26;100943.75;;;0.28;73.94
30949;BME280;17637;51.984;21.208;2023-01-26T05:30:58;100920.91;;;0.18;73.49
30949;BME280;17637;51.984;21.208;2023-01-26T05:33:31;100939.50;;;0.27;73.29
30949;BME280;17637;51.984;21.208;2023-01-26T05:36:04;100942.84;;;0.31;73.52
30949;BME280;17637;51.984;21.208;2023-01-26T05:38:37;100945.47;;;0.26;73.25
30949;BME280;17637;51.984;21.208;2023-01-26T05:41:09;100928.56;;;0.19;73.42
30949;BME280;17637;51.984;21.208;2023-01-26T05:43:41;100917.75;;;0.05;73.08
30949;BME280;17637;51.984;21.208;2023-01-26T05:46:13;100936.16;;;0.24;73.18
30949;BME280;17637;51.984;21.208;2023-01-26T05:48:45;100948.03;;;0.26;73.17
30949;BME280;17637;51.984;21.208;2023-01-26T05:51:17;100930.22;;;0.22;73.07
30949;BME280;17637;51.984;21.208;2023-01-26T05:53:49;100928.53;;;0.21;72.76
30949;BME280;17637;51.984;21.208;2023-01-26T05:56:21;100944.72;;;0.21;72.66
30949;BME280;17637;51.984;21.208;2023-01-26T05:58:53;100925.34;;;0.09;72.45
30949;BME280;17637;51.984;21.208;2023-01-26T06:01:25;100935.47;;;0.15;72.24
30949;BME280;17637;51.984;21.208;2023-01-26T06:03:57;100947.16;;;0.27;72.14
30949;BME280;17637;51.984;21.208;2023-01-26T06:06:29;100953.09;;;0.28;71.96
30949;BME280;17637;51.984;21.208;2023-01-26T06:09:01;100938.69;;;0.24;71.96
30949;BME280;17637;51.984;21.208;2023-01-26T06:11:33;100891.66;;;-0.11;71.66
30949;BME280;17637;51.984;21.208;2023-01-26T06:14:05;100941.25;;;0.24;72.19
30949;BME280;17637;51.984;21.208;2023-01-26T06:16:37;100940.53;;;0.17;71.66
30949;BME280;17637;51.984;21.208;2023-01-26T06:19:10;100955.69;;;0.26;71.24
30949;BME280;17637;51.984;21.208;2023-01-26T06:21:42;100937.88;;;0.22;71.65
30949;BME280;17637;51.984;21.208;2023-01-26T06:24:14;100936.38;;;0.11;71.02
30949;BME280;17637;51.984;21.208;2023-01-26T06:26:46;100938.03;;;0.15;70.91
30949;BME280;17637;51.984;21.208;2023-01-26T06:29:20;100938.03;;;0.14;71.00
30949;BME280;17637;51.984;21.208;2023-01-26T06:31:52;100958.38;;;0.20;70.77
30949;BME280;17637;51.984;21.208;2023-01-26T06:34:24;100946.44;;;0.21;70.24
30949;BME280;17637;51.984;21.208;2023-01-26T06:36:56;100938.09;;;0.11;70.28
30949;BME280;17637;51.984;21.208;2023-01-26T06:39:29;100940.63;;;0.12;70.14
30949;BME280;17637;51.984;21.208;2023-01-26T06:42:00;100944.03;;;0.13;69.79
30949;BME280;17637;51.984;21.208;2023-01-26T06:44:32;100959.97;;;0.26;70.03
30949;BME280;17637;51.984;21.208;2023-01-26T06:47:05;100963.41;;;0.25;69.53
30949;BME280;17637;51.984;21.208;2023-01-26T06:49:38;100963.38;;;0.26;70.18
30949;BME280;17637;51.984;21.208;2023-01-26T06:52:24;100941.38;;;0.18;69.80
30949;BME280;17637;51.984;21.208;2023-01-26T06:54:58;100955.59;;;0.32;69.79
30949;BME280;17637;51.984;21.208;2023-01-26T06:57:31;100945.38;;;0.31;69.55
30949;BME280;17637;51.984;21.208;2023-01-26T07:00:03;100899.88;;;0.05;69.19
30949;BME280;17637;51.984;21.208;2023-01-26T07:02:36;100921.81;;;0.15;69.11
30949;BME280;17637;51.984;21.208;2023-01-26T07:05:08;100939.53;;;0.26;69.37
30949;BME280;17637;51.984;21.208;2023-01-26T07:07:43;100946.22;;;0.31;69.58
30949;BME280;17637;51.984;21.208;2023-01-26T07:10:15;100955.50;;;0.36;69.61
30949;BME280;17637;51.984;21.208;2023-01-26T07:12:47;100944.72;;;0.21;69.61
30949;BME280;17637;51.984;21.208;2023-01-26T07:15:19;100897.38;;;0.02;69.48
30949;BME280;17637;51.984;21.208;2023-01-26T07:17:51;100913.41;;;0.10;69.61
30949;BME280;17637;51.984;21.208;2023-01-26T07:20:23;100955.63;;;0.31;69.38
30949;BME280;17637;51.984;21.208;2023-01-26T07:22:58;100947.94;;;0.29;69.14
30949;BME280;17637;51.984;21.208;2023-01-26T07:25:30;100954.72;;;0.34;68.99
30949;BME280;17637;51.984;21.208;2023-01-26T07:28:02;100953.00;;;0.34;68.97
30949;BME280;17637;51.984;21.208;2023-01-26T07:30:34;100915.00;;;0.15;68.64
30949;BME280;17637;51.984;21.208;2023-01-26T07:33:06;100906.56;;;0.12;69.56
30949;BME280;17637;51.984;21.208;2023-01-26T07:35:38;100906.44;;;0.18;68.94
30949;BME280;17637;51.984;21.208;2023-01-26T07:38:10;100896.41;;;0.07;69.32
30949;BME280;17637;51.984;21.208;2023-01-26T07:40:42;100929.94;;;0.36;69.56
30949;BME280;17637;51.984;21.208;2023-01-26T07:43:14;100930.66;;;0.42;68.77
30949;BME280;17637;51.984;21.208;2023-01-26T07:45:48;100920.50;;;0.39;68.75
30949;BME280;17637;51.984;21.208;2023-01-26T07:48:23;100900.03;;;0.39;68.63
30949;BME280;17637;51.984;21.208;2023-01-26T07:51:00;100895.78;;;0.38;68.88
30949;BME280;17637;51.984;21.208;2023-01-26T07:53:32;100926.16;;;0.55;68.75
30949;BME280;17637;51.984;21.208;2023-01-26T07:56:12;100924.25;;;0.63;68.65
30949;BME280;17637;51.984;21.208;2023-01-26T07:58:48;100901.59;;;0.46;68.84
30949;BME280;17637;51.984;21.208;2023-01-26T08:01:21;100906.56;;;0.54;68.50
30949;BME280;17637;51.984;21.208;2023-01-26T08:03:54;100917.44;;;0.62;68.66
30949;BME280;17637;51.984;21.208;2023-01-26T08:06:26;100915.91;;;0.55;68.86
30949;BME280;17637;51.984;21.208;2023-01-26T08:08:58;100872.19;;;0.25;68.53
30949;BME280;17637;51.984;21.208;2023-01-26T08:11:30;100899.09;;;0.45;68.45
30949;BME280;17637;51.984;21.208;2023-01-26T08:14:02;100909.25;;;0.48;68.05
30949;BME280;17637;51.984;21.208;2023-01-26T08:16:35;100911.06;;;0.43;68.12
30949;BME280;17637;51.984;21.208;2023-01-26T08:19:07;100888.09;;;0.40;68.03
30949;BME280;17637;51.984;21.208;2023-01-26T08:21:39;100889.03;;;0.36;67.99
30949;BME280;17637;51.984;21.208;2023-01-26T08:24:11;100909.94;;;0.55;68.44
30949;BME280;17637;51.984;21.208;2023-01-26T08:26:44;100891.09;;;0.59;68.04
30949;BME280;17637;51.984;21.208;2023-01-26T08:29:16;100882.72;;;0.52;67.68
30949;BME280;17637;51.984;21.208;2023-01-26T08:31:47;100902.06;;;0.65;67.69
30949;BME280;17637;51.984;21.208;2023-01-26T08:34:20;100866.88;;;0.35;67.90
30949;BME280;17637;51.984;21.208;2023-01-26T08:36:53;100894.50;;;0.59;67.42
30949;BME280;17637;51.984;21.208;2023-01-26T08:39:25;100893.72;;;0.56;67.51
30949;BME280;17637;51.984;21.208;2023-01-26T08:41:57;100879.28;;;0.53;67.36
30949;BME280;17637;51.984;21.208;2023-01-26T08:44:29;100873.44;;;0.48;67.03
30949;BME280;17637;51.984;21.208;2023-01-26T08:47:01;100892.03;;;0.55;66.81
30949;BME280;17637;51.984;21.208;2023-01-26T08:49:33;100914.09;;;0.60;67.42
30949;BME280;17637;51.984;21.208;2023-01-26T08:52:05;100893.75;;;0.54;67.04
30949;BME280;17637;51.984;21.208;2023-01-26T08:54:37;100930.06;;;0.70;67.29
30949;BME280;17637;51.984;21.208;2023-01-26T08:57:09;100909.19;;;0.49;66.58
30949;BME280;17637;51.984;21.208;2023-01-26T08:59:42;100886.22;;;0.48;66.33
30949;BME280;17637;51.984;21.208;2023-01-26T09:02:15;100928.31;;;0.74;66.01
30949;BME280;17637;51.984;21.208;2023-01-26T09:04:47;100891.28;;;0.49;66.46
30949;BME280;17637;51.984;21.208;2023-01-26T09:07:19;100922.56;;;0.62;66.03
30949;BME280;17637;51.984;21.208;2023-01-26T09:09:51;100917.38;;;0.67;66.00
30949;BME280;17637;51.984;21.208;2023-01-26T09:12:23;100913.38;;;0.54;66.19
30949;BME280;17637;51.984;21.208;2023-01-26T09:14:55;100918.31;;;0.61;66.22
30949;BME280;17637;51.984;21.208;2023-01-26T09:17:27;100920.06;;;0.61;65.71
30949;BME280;17637;51.984;21.208;2023-01-26T09:20:00;100940.97;;;0.80;65.76
30949;BME280;17637;51.984;21.208;2023-01-26T09:22:32;100933.38;;;0.75;65.95
30949;BME280;17637;51.984;21.208;2023-01-26T09:25:04;100933.28;;;0.80;65.96
30949;BME280;17637;51.984;21.208;2023-01-26T09:27:36;100907.97;;;0.68;65.70
30949;BME280;17637;51.984;21.208;2023-01-26T09:30:10;100931.22;;;0.96;65.64
30949;BME280;17637;51.984;21.208;2023-01-26T09:32:42;100924.50;;;0.92;65.22
30949;BME280;17637;51.984;21.208;2023-01-26T09:35:14;100923.78;;;0.85;65.09
30949;BME280;17637;51.984;21.208;2023-01-26T09:37:46;100933.00;;;0.94;65.20
30949;BME280;17637;51.984;21.208;2023-01-26T09:46:00;100922.63;;;1.00;65.72
30949;BME280;17637;51.984;21.208;2023-01-26T09:48:46;100919.19;;;1.00;65.32
30949;BME280;17637;51.984;21.208;2023-01-26T09:51:33;100912.38;;;0.98;65.54
30949;BME280;17637;51.984;21.208;2023-01-26T09:57:18;100914.75;;;1.08;65.19
30949;BME280;17637;51.984;21.208;2023-01-26T09:59:59;100912.94;;;1.13;64.95
30949;BME280;17637;51.984;21.208;2023-01-26T10:02:54;100911.44;;;1.04;64.37
30949;BME280;17637;51.984;21.208;2023-01-26T10:08:42;100902.50;;;1.21;64.76
30949;BME280;17637;51.984;21.208;2023-01-26T10:11:24;100901.41;;;1.29;64.69
30949;BME280;17637;51.984;21.208;2023-01-26T10:14:10;100881.41;;;1.11;64.68
30949;BME280;17637;51.984;21.208;2023-01-26T10:16:48;100856.09;;;0.98;64.66
30949;BME280;17637;51.984;21.208;2023-01-26T10:19:46;100893.78;;;1.28;64.29
30949;BME280;17637;51.984;21.208;2023-01-26T10:22:34;100881.13;;;1.22;64.08
30949;BME280;17637;51.984;21.208;2023-01-26T10:25:36;100879.47;;;1.21;63.73
30949;BME280;17637;51.984;21.208;2023-01-26T10:28:17;100880.88;;;1.33;64.08
30949;BME280;17637;51.984;21.208;2023-01-26T10:30:50;100870.69;;;1.31;63.56
30949;BME280;17637;51.984;21.208;2023-01-26T10:33:30;100867.81;;;1.42;62.71
30949;BME280;17637;51.984;21.208;2023-01-26T10:36:04;100865.03;;;1.51;62.65
30949;BME280;17637;51.984;21.208;2023-01-26T10:38:39;100845.63;;;1.42;63.06
30949;BME280;17637;51.984;21.208;2023-01-26T10:43:56;100865.00;;;1.53;62.18
30949;BME280;17637;51.984;21.208;2023-01-26T10:46:40;100864.75;;;1.62;62.89
30949;BME280;17637;51.984;21.208;2023-01-26T10:49:15;100850.63;;;1.47;62.34
30949;BME280;17637;51.984;21.208;2023-01-26T10:52:07;100855.75;;;1.47;62.29
30949;BME280;17637;51.984;21.208;2023-01-26T10:54:39;100822.69;;;1.38;62.51
30949;BME280;17637;51.984;21.208;2023-01-26T10:57:27;100854.00;;;1.49;62.55
30949;BME280;17637;51.984;21.208;2023-01-26T11:00:03;100849.22;;;1.68;62.45
30949;BME280;17637;51.984;21.208;2023-01-26T11:02:48;100836.72;;;1.56;61.49
30949;BME280;17637;51.984;21.208;2023-01-26T11:05:23;100833.28;;;1.57;61.85
30949;BME280;17637;51.984;21.208;2023-01-26T11:07:56;100794.53;;;1.38;61.90
30949;BME280;17637;51.984;21.208;2023-01-26T11:10:36;100819.81;;;1.50;61.83
30949;BME280;17637;51.984;21.208;2023-01-26T11:13:16;100788.47;;;1.40;61.38
30949;BME280;17637;51.984;21.208;2023-01-26T11:16:11;100823.13;;;1.54;60.84
30949;BME280;17637;51.984;21.208;2023-01-26T11:19:49;100805.22;;;1.52;62.30
30949;BME280;17637;51.984;21.208;2023-01-26T11:22:54;100809.31;;;1.59;61.66
30949;BME280;17637;51.984;21.208;2023-01-26T11:31:36;100804.75;;;1.69;61.33
30949;BME280;17637;51.984;21.208;2023-01-26T11:51:45;100773.97;;;1.39;61.41
30949;BME280;17637;51.984;21.208;2023-01-26T12:02:37;100762.56;;;1.51;62.05
30949;BME280;17637;51.984;21.208;2023-01-26T12:05:22;100760.31;;;1.40;61.50
30949;BME280;17637;51.984;21.208;2023-01-26T12:16:59;100763.56;;;1.45;61.07
30949;BME280;17637;51.984;21.208;2023-01-26T12:19:58;100758.47;;;1.45;61.64
30949;BME280;17637;51.984;21.208;2023-01-26T12:22:37;100748.53;;;1.33;61.88
30949;BME280;17637;51.984;21.208;2023-01-26T12:33:24;100755.06;;;1.45;62.47
30949;BME280;17637;51.984;21.208;2023-01-26T12:47:17;100737.91;;;1.47;61.28
30949;BME280;17637;51.984;21.208;2023-01-26T12:49:58;100716.06;;;1.35;61.96
30949;BME280;17637;51.984;21.208;2023-01-26T12:55:28;100751.75;;;1.41;62.02
30949;BME280;17637;51.984;21.208;2023-01-26T12:58:05;100750.88;;;1.41;62.02
30949;BME280;17637;51.984;21.208;2023-01-26T13:00:56;100743.41;;;1.35;61.81
30949;BME280;17637;51.984;21.208;2023-01-26T13:03:35;100750.97;;;1.38;61.83
30949;BME280;17637;51.984;21.208;2023-01-26T13:09:02;100752.63;;;1.40;62.16
30949;BME280;17637;51.984;21.208;2023-01-26T13:11:56;100741.56;;;1.38;61.96
30949;BME280;17637;51.984;21.208;2023-01-26T13:19:57;100740.47;;;1.16;62.39
30949;BME280;17637;51.984;21.208;2023-01-26T13:22:38;100752.13;;;1.27;62.28
30949;BME280;17637;51.984;21.208;2023-01-26T13:25:27;100746.91;;;1.30;62.73
30949;BME280;17637;51.984;21.208;2023-01-26T13:28:01;100739.97;;;1.34;62.23
30949;BME280;17637;51.984;21.208;2023-01-26T13:30:44;100735.16;;;1.23;62.38
30949;BME280;17637;51.984;21.208;2023-01-26T13:33:23;100711.03;;;0.99;61.43
30949;BME280;17637;51.984;21.208;2023-01-26T13:35:56;100713.72;;;0.94;62.30
30949;BME280;17637;51.984;21.208;2023-01-26T13:38:37;100734.41;;;1.20;62.38
30949;BME280;17637;51.984;21.208;2023-01-26T13:41:19;100729.22;;;1.21;62.48
30949;BME280;17637;51.984;21.208;2023-01-26T13:43:56;100732.91;;;1.11;62.41
30949;BME280;17637;51.984;21.208;2023-01-26T13:46:35;100703.63;;;0.88;62.41
30949;BME280;17637;51.984;21.208;2023-01-26T13:49:35;100744.13;;;1.07;62.46
30949;BME280;17637;51.984;21.208;2023-01-26T13:52:23;100730.56;;;1.03;62.17
30949;BME280;17637;51.984;21.208;2023-01-26T13:54:56;100718.84;;;0.94;63.15
30949;BME280;17637;51.984;21.208;2023-01-26T13:57:32;100695.22;;;0.83;62.91
30949;BME280;17637;51.984;21.208;2023-01-26T14:00:10;100725.28;;;1.09;63.30
30949;BME280;17637;51.984;21.208;2023-01-26T14:02:47;100722.84;;;1.05;62.78
30949;BME280;17637;51.984;21.208;2023-01-26T14:05:20;100733.94;;;1.05;63.03
30949;BME280;17637;51.984;21.208;2023-01-26T14:07:55;100732.41;;;0.98;63.67
30949;BME280;17637;51.984;21.208;2023-01-26T14:10:27;100732.28;;;1.03;63.03
30949;BME280;17637;51.984;21.208;2023-01-26T14:12:59;100732.28;;;1.03;63.61
30949;BME280;17637;51.984;21.208;2023-01-26T14:15:33;100708.16;;;0.78;63.21
30949;BME280;17637;51.984;21.208;2023-01-26T14:18:05;100739.34;;;0.93;63.44
30949;BME280;17637;51.984;21.208;2023-01-26T14:20:47;100714.72;;;0.89;63.56
30949;BME280;17637;51.984;21.208;2023-01-26T14:23:19;100719.13;;;0.82;63.18
30949;BME280;17637;51.984;21.208;2023-01-26T14:26:04;100737.50;;;0.98;63.63
30949;BME280;17637;51.984;21.208;2023-01-26T14:28:40;100725.94;;;0.83;63.29
30949;BME280;17637;51.984;21.208;2023-01-26T14:31:24;100736.03;;;0.89;63.04
30949;BME280;17637;51.984;21.208;2023-01-26T14:33:57;100736.03;;;0.89;63.79
30949;BME280;17637;51.984;21.208;2023-01-26T14:36:30;100719.31;;;0.76;63.94
30949;BME280;17637;51.984;21.208;2023-01-26T14:39:18;100680.75;;;0.49;63.84
30949;BME280;17637;51.984;21.208;2023-01-26T14:41:50;100628.75;;;0.14;64.07
30949;BME280;17637;51.984;21.208;2023-01-26T14:44:22;100717.53;;;0.78;64.19
30949;BME280;17637;51.984;21.208;2023-01-26T14:46:59;100715.06;;;0.75;63.95
30949;BME280;17637;51.984;21.208;2023-01-26T14:49:43;100693.41;;;0.54;63.86
30949;BME280;17637;51.984;21.208;2023-01-26T14:52:35;100716.09;;;0.68;64.22
30949;BME280;17637;51.984;21.208;2023-01-26T14:55:18;100715.59;;;0.53;64.42
30949;BME280;17637;51.984;21.208;2023-01-26T14:57:51;100685.19;;;0.41;64.63
30949;BME280;17637;51.984;21.208;2023-01-26T15:00:27;100694.41;;;0.48;65.06
30949;BME280;17637;51.984;21.208;2023-01-26T15:03:05;100696.16;;;0.47;64.40
30949;BME280;17637;51.984;21.208;2023-01-26T15:05:38;100700.28;;;0.52;64.21